Baroda, MI (49101)

11:48 PM EDT on August 27, 2015 (GMT -0400)
Village of Baroda | | Change Station
CLOSE
Current Station
Personal Weather Station
Location: Baroda, MI
Elevation: 646 ft
Nearby Weather Stations

Elev 646 ft 41.96 °N, 86.48 °W | Updated 8 seconds ago

Partly Cloudy
Partly Cloudy
55.3 °F
Feels Like 55.3 °F
N
0.0
Wind Variable Wind from NW
Gusts 0.0 mph

Today
High -- | Low -- °F
--% Chance of Precip.
Yesterday
High -- | Low -- °F
Precip. -- in
7:06 AM 8:28 PM
Waxing Gibbous, 96% visible
Pressure 30.16 in
Visibility 8.0 miles
Clouds Clear
Dew Point 54 °F
Humidity 95%
Rainfall 0.00 in
Snow Depth Not available.
UV 0 out of 12
Pollen 9.70 out of 12
Air Quality Not available.
Flu Activity Not available.
METAR KBEH 280253Z AUTO 00000KT 8SM CLR 13/12 A3016 RMK AO2 SLP211 T01330122 53001
Pressure 30.16 in
Visibility 8.0 miles
Clouds Clear
Dew Point 54 °F
Humidity 95%
Rainfall 0.00 in
Snow Depth Not available.
UV 0 out of 12
Pollen 9.70 out of 12
Air Quality Not available.
Flu Activity Not available.
METAR KBEH 280253Z AUTO 00000KT 8SM CLR 13/12 A3016 RMK AO2 SLP211 T01330122 53001

10-Day Weather Forecast

×

Almanac

Astronomy

Aug. 27, 2015 Rise Set
Actual Time
Civil Twilight
Nautical Twilight
Astronomical Twilight
Moon
Length of Visible Light
Length of Day
Tomorrow will be .
, % of the Moon is Illuminated

Today's Extremes

State Highs State Lows

Community

WunderPhotos

Upload Photos

1,850,317 photos uploaded!

WunderBlogs® & News

Nearby

Air Quality

  Air Quality AQ Index Pollutant
Not available.

Snow Depth

Station Depth Elevation

Earthquake Activity

City Distance Mag. Time & Date
Minimum magnitude displayed is 2.5.

Coastal Water Temperatures

Place Temperature

Stations

Nearby Weather Stations

Station Location Temp. Windchill Dew Point Humidity Wind Precip. Elev Updated Type